Balnearia, Argentina
Current Conditions -  °F | °C
As of 11:00 AM on Friday 31 Oct 2014 (Local Time) from SACO Reporting Station
Overcast Overcast  
Wind Chill: 63°   Ceiling: 2500
Heat Index: 63°   Visibility: 6mi
Dew Point: 52°   Wind: 13mph
Humidity: 68%   Direction: 180°S
Pressure: 30.03"   Gusts: NA
Location:  31°S, 62.67°W
Report Text: SACO 311400Z 18011KT 9999 FEW015 OVC025 17/11 Q1017
Loading
Personal Weather Stations






























Interactive Weather Map
Tropical Storm Tracking
New forecast layout! Learn more

10-Day Weather Forecast

Advertisements
Track Severe Weather on mobile